Time;durP1;ratioP1;P1;durP2;ratioP2;P2;SDS_P1;SDS_P2;PMS_P1;PMS_P2;Temp;Humidity;BMP_temperature;BMP_pressure;BME280_temperature;BME280_humidity;BME280_pressure;Samples;Min_cycle;Max_cycle;Signal;HPM_P1;HPM_P2
2023/07/27 00:00:48;;;;;;;15.95;8.90;;;;;;;14.15;70.32;99941.66;10161233;29;20040;-76
2023/07/27 00:05:51;;;;;;;11.38;8.40;;;;;;;14.13;70.65;99940.97;10153589;29;20412;-74
2023/07/27 00:10:54;;;;;;;13.93;8.18;;;;;;;14.10;70.75;99935.88;10151371;29;20527;-77
2023/07/27 00:16:02;;;;;;;11.40;8.10;;;;;;;14.21;70.23;99928.53;10149561;29;20044;-76
2023/07/27 00:21:05;;;;;;;11.55;8.82;;;;;;;14.21;70.28;99934.78;10154237;29;20044;-76
2023/07/27 00:26:08;;;;;;;10.93;7.78;;;;;;;14.25;69.99;99930.75;10148755;29;20104;-75
2023/07/27 00:31:12;;;;;;;13.18;8.90;;;;;;;14.22;69.78;99922.13;10148839;29;20404;-75
2023/07/27 00:36:15;;;;;;;8.80;7.07;;;;;;;14.14;70.45;99914.81;10154527;29;20448;-75
2023/07/27 00:41:18;;;;;;;11.63;7.82;;;;;;;14.22;70.13;99908.63;10157774;29;20045;-76
2023/07/27 00:46:25;;;;;;;12.82;7.70;;;;;;;14.16;70.17;99904.69;10151866;29;20583;-75
2023/07/27 00:51:28;;;;;;;9.55;7.60;;;;;;;14.14;70.48;99901.31;10150970;29;20047;-75
2023/07/27 00:56:31;;;;;;;10.13;7.82;;;;;;;14.09;70.52;99884.72;10152129;29;20096;-75
2023/07/27 01:01:36;;;;;;;11.65;7.10;;;;;;;14.10;70.42;99884.56;10152549;29;20496;-75
2023/07/27 01:06:40;;;;;;;8.68;7.78;;;;;;;14.00;70.14;99878.44;10152569;29;20093;-75
2023/07/27 01:11:50;;;;;;;11.57;7.03;;;;;;;14.02;70.68;99875.59;10166374;29;20063;-76
2023/07/27 01:17:02;;;;;;;10.02;7.20;;;;;;;13.96;70.23;99854.59;10165667;29;20060;-76
2023/07/27 01:22:22;;;;;;;12.00;7.72;;;;;;;13.87;70.25;99838.34;10165007;29;20411;-76
2023/07/27 01:27:49;;;;;;;10.02;6.95;;;;;;;13.79;70.47;99830.19;10162022;29;20051;-76
2023/07/27 01:32:59;;;;;;;9.98;7.20;;;;;;;13.71;70.54;99822.91;10159023;29;20412;-76
2023/07/27 01:38:04;;;;;;;8.88;7.18;;;;;;;13.67;70.52;99821.50;10154830;29;20111;-76
2023/07/27 01:43:07;;;;;;;8.30;6.90;;;;;;;13.69;70.59;99811.41;10148245;29;20032;-76
2023/07/27 01:48:14;;;;;;;9.00;7.47;;;;;;;13.71;70.44;99805.84;10174265;29;20055;-75
2023/07/27 01:53:20;;;;;;;10.52;7.68;;;;;;;13.57;71.13;99801.03;10156613;29;20504;-75
2023/07/27 01:58:26;;;;;;;11.13;8.18;;;;;;;13.55;70.97;99792.25;10158522;29;20096;-75
2023/07/27 02:03:30;;;;;;;12.27;8.55;;;;;;;13.56;70.99;99781.31;10170480;29;20044;-75
2023/07/27 02:08:37;;;;;;;11.38;7.80;;;;;;;13.52;71.00;99779.94;10163575;29;20052;-75
2023/07/27 02:13:44;;;;;;;10.20;7.68;;;;;;;13.57;70.78;99772.19;10164709;29;20048;-75
2023/07/27 02:18:51;;;;;;;10.75;8.05;;;;;;;13.62;70.71;99766.31;10157077;29;20114;-75
2023/07/27 02:23:55;;;;;;;9.93;8.15;;;;;;;13.63;70.62;99751.81;10164202;29;20136;-74
2023/07/27 02:28:58;;;;;;;13.07;8.82;;;;;;;13.59;70.58;99747.75;10162498;29;20139;-75
2023/07/27 02:34:03;;;;;;;12.10;8.32;;;;;;;13.60;70.88;99744.91;10160252;29;20052;-76
2023/07/27 02:39:09;;;;;;;12.13;7.68;;;;;;;13.69;70.69;99737.72;10145861;29;20056;-76
2023/07/27 02:44:12;;;;;;;9.95;7.82;;;;;;;13.68;70.67;99734.13;10142551;29;20055;-76
2023/07/27 02:49:17;;;;;;;10.25;7.50;;;;;;;13.67;70.79;99731.63;10154790;29;20044;-76
2023/07/27 02:54:20;;;;;;;10.15;7.78;;;;;;;13.66;70.61;99736.19;10154002;29;20055;-76
2023/07/27 02:59:24;;;;;;;14.63;8.55;;;;;;;13.67;70.71;99731.63;10150017;29;20439;-76
2023/07/27 03:04:28;;;;;;;9.73;7.97;;;;;;;13.66;70.56;99733.47;10148541;29;20123;-75
2023/07/27 03:09:31;;;;;;;10.57;7.97;;;;;;;13.63;70.70;99727.53;10159318;29;20045;-75
2023/07/27 03:14:34;;;;;;;13.90;8.52;;;;;;;13.67;71.04;99729.75;10167016;29;20139;-75
2023/07/27 03:19:38;;;;;;;12.43;8.55;;;;;;;13.66;70.89;99733.47;10160057;29;20452;-76
2023/07/27 03:24:41;;;;;;;10.27;7.65;;;;;;;13.64;71.21;99724.69;10148133;29;20048;-76
2023/07/27 03:29:44;;;;;;;10.75;8.05;;;;;;;13.62;71.20;99720.44;10152319;29;20044;-75
2023/07/27 03:34:50;;;;;;;13.40;8.13;;;;;;;13.56;71.36;99711.16;10153630;29;20044;-75
2023/07/27 03:39:52;;;;;;;10.70;7.88;;;;;;;13.52;71.60;99704.41;10154386;29;20044;-75
2023/07/27 03:44:58;;;;;;;10.85;7.97;;;;;;;13.61;71.54;99708.81;10138629;29;20116;-76
2023/07/27 03:50:02;;;;;;;13.02;7.40;;;;;;;13.64;71.65;99719.28;10167681;29;20052;-75
2023/07/27 03:55:06;;;;;;;10.50;7.25;;;;;;;13.73;71.22;99716.63;10152312;29;20060;-76
2023/07/27 04:00:11;;;;;;;10.68;7.15;;;;;;;13.86;71.16;99717.88;10151837;29;20052;-76
2023/07/27 04:05:18;;;;;;;9.90;6.63;;;;;;;13.93;71.03;99701.88;10153578;29;20044;-75
2023/07/27 04:10:21;;;;;;;7.30;6.05;;;;;;;13.91;70.70;99701.19;10152794;29;20048;-76
2023/07/27 04:15:24;;;;;;;6.55;5.32;;;;;;;14.06;70.49;99702.25;10153291;29;20546;-76
2023/07/27 04:20:28;;;;;;;10.82;5.40;;;;;;;14.29;68.70;99698.94;10151204;29;20407;-76
2023/07/27 04:25:31;;;;;;;6.88;4.68;;;;;;;14.50;68.54;99693.13;10146984;29;20071;-75
2023/07/27 04:30:34;;;;;;;6.40;4.78;;;;;;;14.62;67.31;99704.44;10142660;29;20036;-75
2023/07/27 04:35:38;;;;;;;8.48;4.05;;;;;;;14.80;65.88;99695.16;10158003;29;20484;-75
2023/07/27 04:40:41;;;;;;;6.60;3.75;;;;;;;14.96;65.10;99696.19;10148891;29;20040;-76
2023/07/27 04:45:44;;;;;;;4.78;3.40;;;;;;;14.93;65.17;99688.41;10143929;29;20055;-75
2023/07/27 04:50:49;;;;;;;5.45;3.60;;;;;;;15.05;65.34;99687.88;10150195;29;20044;-75
2023/07/27 04:55:52;;;;;;;5.53;4.10;;;;;;;15.20;64.97;99684.50;10152789;29;20131;-75
2023/07/27 05:00:55;;;;;;;5.88;3.55;;;;;;;15.24;65.49;99694.78;10151323;29;20460;-76
2023/07/27 05:06:00;;;;;;;4.38;3.67;;;;;;;15.23;66.43;99687.72;10144140;29;20107;-75
2023/07/27 05:11:03;;;;;;;5.15;4.07;;;;;;;14.86;68.63;99680.13;10173005;29;20420;-76
2023/07/27 05:16:06;;;;;;;4.95;3.92;;;;;;;14.96;68.48;99670.00;10152172;29;20500;-75
2023/07/27 05:21:10;;;;;;;6.40;4.05;;;;;;;14.85;69.37;99683.00;10154201;29;20096;-75
2023/07/27 05:26:16;;;;;;;6.53;5.15;;;;;;;14.64;70.94;99670.00;10155544;29;20052;-74
2023/07/27 05:31:19;;;;;;;5.57;4.72;;;;;;;14.59;72.31;99674.06;10171001;29;20055;-74
2023/07/27 05:36:23;;;;;;;10.68;5.45;;;;;;;14.47;73.87;99671.84;10160992;29;20048;-77
2023/07/27 05:41:26;;;;;;;10.43;5.18;;;;;;;14.41;75.07;99665.25;10155740;29;20099;-76
2023/07/27 05:46:29;;;;;;;13.23;5.53;;;;;;;14.34;77.35;99666.88;10147669;29;20055;-76
2023/07/27 05:51:34;;;;;;;12.77;6.25;;;;;;;14.19;77.95;99668.56;10150361;29;20044;-76
2023/07/27 05:56:37;;;;;;;8.90;5.45;;;;;;;13.95;79.62;99656.66;10151772;29;20400;-76
2023/07/27 06:01:40;;;;;;;8.30;6.00;;;;;;;13.83;82.28;99647.19;10152685;29;20040;-76
2023/07/27 06:06:46;;;;;;;10.00;6.35;;;;;;;13.85;83.45;99637.03;10151435;29;20423;-76
2023/07/27 06:11:49;;;;;;;11.88;6.53;;;;;;;13.99;84.98;99632.88;10162391;29;20051;-76
2023/07/27 06:16:52;;;;;;;9.80;6.70;;;;;;;13.99;85.86;99616.66;10161392;29;20070;-77
2023/07/27 06:21:56;;;;;;;9.40;5.97;;;;;;;13.93;85.42;99621.75;10152768;29;20415;-77
2023/07/27 06:26:59;;;;;;;9.70;5.47;;;;;;;13.91;85.67;99614.81;10147861;29;20048;-77
2023/07/27 06:32:02;;;;;;;9.45;5.45;;;;;;;13.79;85.28;99608.00;10165550;29;20573;-76
2023/07/27 06:37:07;;;;;;;8.05;6.07;;;;;;;13.98;85.97;99601.50;10159791;29;20048;-77
2023/07/27 06:42:10;;;;;;;8.05;5.18;;;;;;;14.10;85.03;99579.41;10161061;29;20492;-76
2023/07/27 06:47:13;;;;;;;7.13;6.03;;;;;;;14.16;85.27;99583.31;10146022;29;20080;-76
2023/07/27 06:52:17;;;;;;;6.97;4.95;;;;;;;14.30;85.00;99579.94;10151759;29;20121;-76
2023/07/27 06:57:20;;;;;;;8.05;4.85;;;;;;;14.47;84.46;99561.88;10159497;29;20036;-75
2023/07/27 07:02:23;;;;;;;10.82;4.93;;;;;;;14.45;83.41;99547.69;10159726;29;20053;-77
2023/07/27 07:07:28;;;;;;;8.13;4.38;;;;;;;14.72;84.57;99537.53;10173594;29;20487;-76
2023/07/27 07:12:31;;;;;;;7.55;5.38;;;;;;;14.78;83.28;99540.41;10162470;29;20050;-75
2023/07/27 07:17:33;;;;;;;7.38;5.00;;;;;;;14.80;83.57;99537.53;10166399;29;20095;-75
2023/07/27 07:22:38;;;;;;;5.43;4.63;;;;;;;14.89;82.48;99536.50;10158705;29;20528;-75
2023/07/27 07:27:42;;;;;;;6.50;3.85;;;;;;;15.06;82.72;99521.06;10158109;29;20048;-75
2023/07/27 07:32:44;;;;;;;6.78;5.05;;;;;;;14.98;80.76;99518.41;10154845;29;20032;-75
2023/07/27 07:37:49;;;;;;;5.30;3.88;;;;;;;14.83;81.07;99521.78;10156136;29;20048;-74
2023/07/27 07:42:52;;;;;;;6.47;4.13;;;;;;;14.86;81.31;99511.66;10158008;29;20044;-75
2023/07/27 07:47:55;;;;;;;10.85;5.80;;;;;;;14.88;82.52;99510.47;10152132;29;20083;-76
2023/07/27 07:53:00;;;;;;;7.88;4.53;;;;;;;14.58;82.20;99512.06;10159815;29;20104;-76
2023/07/27 07:58:03;;;;;;;8.30;4.55;;;;;;;14.32;84.86;99496.88;10158884;29;20036;-76
2023/07/27 08:03:06;;;;;;;7.75;5.05;;;;;;;14.02;86.30;99489.47;10160298;29;20655;-76
2023/07/27 08:08:10;;;;;;;7.10;4.53;;;;;;;13.85;87.78;99488.56;10147901;29;20568;-75
2023/07/27 08:13:13;;;;;;;10.13;5.60;;;;;;;13.83;89.18;99463.63;10152527;29;20048;-76
2023/07/27 08:18:16;;;;;;;10.10;6.68;;;;;;;13.81;91.00;99444.91;10151427;29;20041;-76
2023/07/27 08:23:20;;;;;;;10.00;6.45;;;;;;;13.98;91.55;99439.50;10163039;29;20117;-76
2023/07/27 08:28:23;;;;;;;14.25;7.22;;;;;;;13.98;92.29;99429.53;10151157;29;20051;-76
2023/07/27 08:33:26;;;;;;;10.50;7.50;;;;;;;13.97;92.72;99419.75;10158946;29;20552;-76
2023/07/27 08:38:32;;;;;;;9.48;6.70;;;;;;;13.89;92.56;99415.19;10161148;29;20116;-76
2023/07/27 08:43:35;;;;;;;10.07;6.15;;;;;;;14.05;92.64;99413.50;10158901;29;20028;-76
2023/07/27 08:48:38;;;;;;;8.30;6.80;;;;;;;13.93;92.93;99413.88;10151766;29;20488;-76
2023/07/27 08:53:42;;;;;;;12.27;7.55;;;;;;;13.96;96.12;99403.72;10150434;29;20092;-76
2023/07/27 08:58:46;;;;;;;16.42;7.18;;;;;;;13.89;93.69;99408.97;10163673;29;20084;-76
2023/07/27 09:03:49;;;;;;;6.88;5.72;;;;;;;13.66;93.72;99401.56;10157200;29;20048;-75
2023/07/27 09:08:53;;;;;;;7.13;5.43;;;;;;;13.65;93.70;99389.06;10156187;29;20040;-75
2023/07/27 09:14:02;;;;;;;10.27;5.97;;;;;;;13.56;93.67;99386.53;10153310;29;20047;-75
2023/07/27 09:19:06;;;;;;;7.43;5.38;;;;;;;13.42;93.82;99398.84;10153820;29;20061;-76
2023/07/27 09:24:12;;;;;;;8.05;5.65;;;;;;;13.65;94.41;99388.22;10115690;29;20087;-76
2023/07/27 09:29:16;;;;;;;8.40;6.28;;;;;;;13.73;94.20;99377.41;10107476;29;21632;-76
2023/07/27 09:34:20;;;;;;;8.23;5.80;;;;;;;13.88;93.76;99374.91;10120760;29;20063;-76
2023/07/27 09:39:26;;;;;;;5.93;4.88;;;;;;;13.83;94.24;99370.00;10126709;29;20179;-75
2023/07/27 09:44:30;;;;;;;5.57;4.03;;;;;;;13.89;95.37;99363.91;10122433;29;20423;-75
2023/07/27 09:49:33;;;;;;;4.90;4.40;;;;;;;14.03;94.57;99348.88;10115631;29;21578;-75
2023/07/27 09:54:38;;;;;;;5.43;4.07;;;;;;;14.30;94.88;99355.72;10119612;29;20059;-75
2023/07/27 09:59:42;;;;;;;4.78;4.15;;;;;;;14.25;94.30;99357.25;10125224;29;20079;-75
2023/07/27 10:04:49;;;;;;;4.47;3.97;;;;;;;14.34;94.64;99343.56;10130088;29;20076;-76
2023/07/27 10:10:27;;;;;;;3.83;3.42;;;;;;;14.66;95.18;99333.66;10117598;29;20079;-76
2023/07/27 10:15:30;;;;;;;3.25;2.95;;;;;;;14.47;94.47;99326.81;10117648;29;20048;-76
2023/07/27 10:20:36;;;;;;;4.28;3.10;;;;;;;14.66;95.50;99322.03;10116803;29;20613;-76
2023/07/27 10:26:03;;;;;;;3.92;2.95;;;;;;;14.45;96.63;99326.16;10117965;29;20056;-76
2023/07/27 10:31:21;;;;;;;3.72;2.88;;;;;;;14.36;98.14;99322.59;10103764;29;20048;-76
2023/07/27 10:36:44;;;;;;;3.13;2.85;;;;;;;14.53;97.39;99330.69;10113475;29;20055;-77
2023/07/27 10:42:03;;;;;;;3.00;2.70;;;;;;;14.39;97.15;99332.25;10122966;29;20059;-76
2023/07/27 10:47:08;;;;;;;3.50;2.90;;;;;;;14.52;97.40;99318.19;10125385;29;20055;-76
2023/07/27 10:52:15;;;;;;;2.85;2.65;;;;;;;15.05;97.18;99314.66;10112522;29;20056;-76
2023/07/27 10:57:20;;;;;;;3.78;2.17;;;;;;;14.88;96.63;99321.22;10124039;29;20075;-76
2023/07/27 11:02:25;;;;;;;2.80;1.38;;;;;;;14.82;96.65;99308.41;10125171;29;20052;-75
2023/07/27 11:07:30;;;;;;;1.90;1.80;;;;;;;14.91;97.37;99318.16;10117049;29;20437;-75
2023/07/27 11:12:45;;;;;;;1.85;1.75;;;;;;;15.36;95.74;99302.13;10116479;29;20328;-74
2023/07/27 11:17:49;;;;;;;1.40;1.25;;;;;;;15.35;95.31;99306.72;10123040;29;21446;-75
2023/07/27 11:22:53;;;;;;;1.58;1.45;;;;;;;15.59;95.29;99302.97;10121017;29;20528;-76
2023/07/27 11:27:58;;;;;;;1.60;1.13;;;;;;;15.64;96.02;99292.44;10116349;29;20076;-76
2023/07/27 11:33:06;;;;;;;0.60;0.60;;;;;;;15.44;96.55;99283.13;10109105;29;20052;-76
2023/07/27 11:38:09;;;;;;;0.70;0.60;;;;;;;15.52;97.02;99277.66;10119098;29;20051;-76
2023/07/27 11:43:14;;;;;;;0.60;0.60;;;;;;;15.69;95.90;99275.66;10123369;29;20059;-76
2023/07/27 11:48:17;;;;;;;0.82;0.50;;;;;;;15.58;96.90;99271.53;10125247;29;20146;-75
2023/07/27 11:53:24;;;;;;;0.52;0.52;;;;;;;15.50;97.18;99276.19;10104563;29;20095;-76
2023/07/27 11:58:44;;;;;;;1.48;0.70;;;;;;;15.79;97.10;99264.53;10113919;29;20114;-76
2023/07/27 12:03:48;;;;;;;0.50;0.50;;;;;;;15.85;96.39;99264.66;10115134;29;20424;-76
2023/07/27 12:08:51;;;;;;;1.15;0.77;;;;;;;16.08;97.40;99261.00;10109936;29;20067;-77
2023/07/27 12:13:56;;;;;;;1.20;0.88;;;;;;;16.29;96.59;99257.53;10106755;29;20060;-76
2023/07/27 12:19:02;;;;;;;1.23;0.60;;;;;;;15.56;99.76;99268.16;10111398;29;20049;-75
2023/07/27 12:24:09;;;;;;;1.33;1.33;;;;;;;15.75;99.16;99255.94;10110282;29;20056;-75
2023/07/27 12:29:17;;;;;;;2.22;1.42;;;;;;;15.74;98.55;99265.06;10111840;29;20044;-76
2023/07/27 12:34:22;;;;;;;2.03;1.92;;;;;;;16.07;97.58;99257.47;10101720;29;20131;-75
2023/07/27 12:39:28;;;;;;;2.33;2.13;;;;;;;16.24;96.47;99251.84;10108972;29;20052;-75
2023/07/27 12:44:32;;;;;;;2.83;2.13;;;;;;;16.41;96.91;99252.50;10111251;29;20059;-76
2023/07/27 12:49:35;;;;;;;3.67;2.58;;;;;;;16.06;97.01;99254.94;10110238;29;20056;-76
2023/07/27 12:54:37;;;;;;;3.10;2.90;;;;;;;16.33;96.64;99238.03;10109977;29;21084;-75
2023/07/27 12:59:42;;;;;;;3.15;2.95;;;;;;;16.30;94.62;99238.41;10129659;29;20052;-76
2023/07/27 13:04:46;;;;;;;2.88;2.67;;;;;;;16.59;93.66;99242.06;10125877;29;20044;-76
2023/07/27 13:09:49;;;;;;;2.20;2.03;;;;;;;16.68;93.54;99232.81;10125674;29;20055;-76
2023/07/27 13:14:53;;;;;;;2.00;1.90;;;;;;;16.61;92.94;99228.34;10124049;29;20048;-76
2023/07/27 13:19:56;;;;;;;2.20;2.00;;;;;;;16.81;92.38;99234.78;10121541;29;20153;-74
2023/07/27 13:24:59;;;;;;;1.58;1.48;;;;;;;16.34;94.35;99247.81;10115534;29;20048;-75
2023/07/27 13:30:04;;;;;;;2.75;2.05;;;;;;;16.23;94.84;99239.31;10121554;29;20060;-74
2023/07/27 13:35:08;;;;;;;1.95;1.85;;;;;;;16.31;95.27;99234.66;10105652;29;20067;-76
2023/07/27 13:40:13;;;;;;;3.08;2.40;;;;;;;16.66;94.11;99229.44;10115415;29;20064;-76
2023/07/27 13:45:17;;;;;;;2.88;2.67;;;;;;;16.78;94.09;99224.34;10120009;29;20056;-76
2023/07/27 13:50:20;;;;;;;3.00;2.80;;;;;;;16.70;94.67;99221.75;10119117;29;20063;-76
2023/07/27 13:55:23;;;;;;;3.38;3.08;;;;;;;16.74;93.74;99233.91;10106584;29;20649;-76
2023/07/27 14:00:27;;;;;;;3.05;2.85;;;;;;;16.81;94.47;99240.22;10114659;29;20056;-76
2023/07/27 14:05:30;;;;;;;3.08;2.88;;;;;;;16.76;95.15;99234.56;10128412;29;20062;-76
2023/07/27 14:10:33;;;;;;;2.95;2.83;;;;;;;17.05;95.28;99236.28;10124395;29;20085;-76
2023/07/27 14:15:37;;;;;;;2.40;2.30;;;;;;;17.22;95.02;99231.47;10121090;29;20425;-75
2023/07/27 14:20:40;;;;;;;2.10;2.00;;;;;;;17.12;93.72;99220.09;10121715;29;20640;-76
2023/07/27 14:25:45;;;;;;;3.10;2.40;;;;;;;17.04;94.09;99224.59;10125659;29;20087;-76
2023/07/27 14:30:52;;;;;;;3.33;3.13;;;;;;;16.90;95.31;99216.56;10122086;29;20047;-76
2023/07/27 14:36:13;;;;;;;3.40;3.20;;;;;;;17.17;95.42;99228.53;10100431;29;20123;-76
2023/07/27 14:41:16;;;;;;;2.85;2.60;;;;;;;17.14;96.49;99216.19;10122691;29;20059;-75
2023/07/27 14:46:20;;;;;;;3.03;2.83;;;;;;;17.21;95.00;99217.06;10124461;29;20049;-75
2023/07/27 14:51:23;;;;;;;3.03;2.83;;;;;;;17.14;95.37;99218.91;10124704;29;20579;-75
2023/07/27 14:56:26;;;;;;;2.80;2.17;;;;;;;16.84;97.48;99217.31;10122978;29;20059;-76
2023/07/27 15:01:32;;;;;;;3.17;2.50;;;;;;;17.11;97.24;99221.09;10130902;29;20087;-76
2023/07/27 15:06:35;;;;;;;2.70;2.50;;;;;;;16.79;98.90;99218.72;10126767;29;20044;-76
2023/07/27 15:11:38;;;;;;;3.25;2.50;;;;;;;17.11;96.79;99224.66;10130104;29;20060;-75
2023/07/27 15:16:43;;;;;;;3.38;2.45;;;;;;;16.87;98.90;99220.50;10116428;29;20044;-75
2023/07/27 15:21:45;;;;;;;2.35;2.25;;;;;;;17.10;97.77;99211.31;10123194;29;20531;-75
2023/07/27 15:26:48;;;;;;;2.30;2.10;;;;;;;17.01;97.19;99213.31;10127245;29;20512;-75
2023/07/27 15:31:52;;;;;;;2.30;2.20;;;;;;;16.96;98.53;99215.78;10123682;29;20059;-76
2023/07/27 15:36:56;;;;;;;2.03;1.92;;;;;;;16.64;100.00;99215.22;10116594;29;20049;-76
2023/07/27 15:42:01;;;;;;;1.27;1.17;;;;;;;16.27;100.00;99214.41;10122898;29;20439;-76
2023/07/27 15:47:07;;;;;;;3.13;1.92;;;;;;;16.46;100.00;99204.00;10128699;29;20055;-77
2023/07/27 15:52:09;;;;;;;2.33;2.20;;;;;;;16.67;100.00;99209.41;10121708;29;20091;-76
2023/07/27 15:57:13;;;;;;;2.50;2.40;;;;;;;16.78;100.00;99205.34;10122844;29;20057;-76
2023/07/27 16:02:17;;;;;;;2.40;2.30;;;;;;;16.79;99.74;99205.19;10141704;29;20063;-77
2023/07/27 16:07:20;;;;;;;2.92;2.72;;;;;;;16.81;98.64;99200.41;10121629;29;20048;-76
2023/07/27 16:12:23;;;;;;;4.10;3.80;;;;;;;17.17;96.96;99198.69;10125035;29;20134;-76
2023/07/27 16:17:31;;;;;;;5.03;4.60;;;;;;;17.31;95.84;99191.47;10110554;29;20314;-76
2023/07/27 16:22:34;;;;;;;7.43;6.82;;;;;;;17.06;97.03;99191.88;10118459;29;20051;-75
2023/07/27 16:27:37;;;;;;;4.97;4.57;;;;;;;16.63;99.46;99197.28;10122959;29;20048;-76
2023/07/27 16:32:41;;;;;;;7.65;6.95;;;;;;;16.70;100.00;99191.94;10118876;29;20044;-75
2023/07/27 16:37:44;;;;;;;8.30;7.47;;;;;;;16.98;98.18;99189.28;10109526;29;20060;-76
2023/07/27 16:42:47;;;;;;;9.52;7.80;;;;;;;17.01;98.43;99189.75;10118674;29;20653;-76
2023/07/27 16:47:51;;;;;;;6.32;5.82;;;;;;;16.98;98.98;99186.59;10123314;29;20505;-76
2023/07/27 16:52:54;;;;;;;6.53;5.93;;;;;;;16.91;98.84;99202.78;10114027;29;20052;-76
2023/07/27 16:57:57;;;;;;;6.07;5.47;;;;;;;16.51;100.00;99194.25;10119985;29;20060;-75
2023/07/27 17:03:01;;;;;;;7.13;6.43;;;;;;;16.88;99.42;99205.03;10110136;29;20091;-75
2023/07/27 17:08:06;;;;;;;7.88;7.15;;;;;;;16.85;99.31;99200.84;10113506;29;20270;-76
2023/07/27 17:13:09;;;;;;;9.63;8.80;;;;;;;16.39;100.00;99206.59;10122401;29;20085;-76
2023/07/27 17:18:13;;;;;;;9.27;8.38;;;;;;;16.49;100.00;99212.56;10113708;29;20064;-76
2023/07/27 17:23:16;;;;;;;11.82;10.30;;;;;;;16.51;100.00;99207.81;10110294;29;21358;-76
2023/07/27 17:28:19;;;;;;;13.18;11.73;;;;;;;16.52;100.00;99214.06;10113540;29;20048;-75
2023/07/27 17:33:24;;;;;;;18.45;16.67;;;;;;;16.45;100.00;99208.53;10116549;29;20127;-75
2023/07/27 17:38:29;;;;;;;22.65;18.25;;;;;;;16.52;99.43;99214.91;10104747;29;20057;-75
2023/07/27 17:43:32;;;;;;;25.13;18.85;;;;;;;16.60;99.55;99197.69;10106116;29;20138;-77
2023/07/27 17:48:39;;;;;;;19.77;17.25;;;;;;;16.25;100.00;99208.28;10112266;29;20044;-75
2023/07/27 17:53:42;;;;;;;23.17;18.90;;;;;;;16.52;100.00;99195.09;10112203;29;20056;-74
2023/07/27 17:58:45;;;;;;;21.90;19.70;;;;;;;16.44;100.00;99193.34;10113523;29;20052;-76
2023/07/27 18:03:49;;;;;;;20.30;17.25;;;;;;;16.50;99.42;99208.81;10108765;29;20051;-76
2023/07/27 18:08:54;;;;;;;16.90;13.98;;;;;;;16.30;99.96;99222.16;10121296;29;20044;-76
2023/07/27 18:13:57;;;;;;;23.55;21.15;;;;;;;16.37;100.00;99208.66;10120179;29;20060;-75
2023/07/27 18:19:01;;;;;;;24.63;20.25;;;;;;;16.52;99.66;99228.44;10112854;29;20059;-75
2023/07/27 18:24:05;;;;;;;22.67;20.27;;;;;;;16.62;99.50;99213.75;10110299;29;20047;-76
2023/07/27 18:29:28;;;;;;;25.50;22.80;;;;;;;16.34;100.00;99218.00;10134969;29;20044;-75
2023/07/27 18:34:32;;;;;;;22.00;19.10;;;;;;;16.34;100.00;99214.47;10114389;29;20096;-75
2023/07/27 18:39:35;;;;;;;21.98;19.63;;;;;;;16.71;98.35;99221.56;10117341;29;20052;-76
2023/07/27 18:44:38;;;;;;;23.73;18.45;;;;;;;16.54;99.53;99234.53;10116874;29;20211;-76
2023/07/27 18:49:42;;;;;;;18.05;15.95;;;;;;;16.27;100.00;99227.94;10124885;29;20561;-76
2023/07/27 18:54:45;;;;;;;16.80;13.77;;;;;;;15.99;100.00;99229.59;10131384;29;20045;-76
2023/07/27 18:59:49;;;;;;;19.83;16.80;;;;;;;16.30;100.00;99218.59;10118364;29;20123;-77
2023/07/27 19:04:53;;;;;;;22.23;19.92;;;;;;;16.06;100.00;99222.44;10120849;29;20051;-75
2023/07/27 19:09:56;;;;;;;20.02;18.00;;;;;;;16.23;99.92;99242.84;10123174;29;20048;-76
2023/07/27 19:14:59;;;;;;;23.13;18.95;;;;;;;16.27;100.00;99221.69;10120066;29;20520;-75
2023/07/27 19:20:03;;;;;;;23.25;19.63;;;;;;;16.19;100.00;99222.59;10121543;29;20056;-76
2023/07/27 19:25:07;;;;;;;22.08;19.77;;;;;;;16.05;100.00;99251.38;10117782;29;20074;-77
2023/07/27 19:30:12;;;;;;;18.15;16.25;;;;;;;15.85;100.00;99236.72;10128556;29;20044;-77
2023/07/27 19:35:17;;;;;;;19.95;17.90;;;;;;;16.03;100.00;99237.19;10121502;29;20512;-77
2023/07/27 19:40:20;;;;;;;21.77;17.55;;;;;;;15.84;100.00;99246.72;10119018;29;20045;-76
2023/07/27 19:45:23;;;;;;;20.40;18.20;;;;;;;15.99;100.00;99251.28;10119239;29;20123;-76
2023/07/27 19:50:27;;;;;;;21.02;18.83;;;;;;;15.97;100.00;99232.53;10117409;29;20049;-75
2023/07/27 19:55:30;;;;;;;21.90;19.48;;;;;;;16.00;100.00;99247.56;10121103;29;20095;-76
2023/07/27 20:00:32;;;;;;;22.95;16.92;;;;;;;15.99;100.00;99251.28;10115802;29;20070;-75
2023/07/27 20:05:38;;;;;;;20.20;16.75;;;;;;;16.02;100.00;99278.84;10108419;29;20052;-75
2023/07/27 20:10:41;;;;;;;22.27;19.42;;;;;;;16.02;100.00;99251.75;10110749;29;20062;-76
2023/07/27 20:15:45;;;;;;;23.30;20.02;;;;;;;15.67;100.00;99254.16;10110623;29;20047;-76
2023/07/27 20:20:50;;;;;;;21.98;19.00;;;;;;;15.92;100.00;99264.72;10107814;29;20056;-76
2023/07/27 20:25:53;;;;;;;21.90;15.30;;;;;;;15.77;100.00;99258.47;10104368;29;20134;-76
2023/07/27 20:30:56;;;;;;;21.52;18.83;;;;;;;15.91;100.00;99260.34;10110442;29;20064;-76
2023/07/27 20:36:00;;;;;;;20.05;18.02;;;;;;;15.76;100.00;99262.19;10119082;29;20059;-76
2023/07/27 20:41:04;;;;;;;19.58;17.58;;;;;;;16.00;100.00;99247.56;10111401;29;20052;-76
2023/07/27 20:46:06;;;;;;;14.57;9.27;;;;;;;15.94;100.00;99243.72;10124148;29;20055;-76
2023/07/27 20:51:11;;;;;;;20.02;17.75;;;;;;;15.73;100.00;99255.28;10124484;29;20108;-75
2023/07/27 20:56:15;;;;;;;21.02;18.40;;;;;;;16.06;100.00;99250.34;10122231;29;20600;-77
2023/07/27 21:01:17;;;;;;;18.30;16.33;;;;;;;15.76;100.00;99257.63;10121300;29;20079;-76
2023/07/27 21:06:22;;;;;;;17.88;16.08;;;;;;;15.56;100.00;99264.59;10103881;29;20477;-75
2023/07/27 21:11:25;;;;;;;17.65;15.55;;;;;;;15.66;100.00;99266.03;10117426;29;20044;-75
2023/07/27 21:16:28;;;;;;;19.45;16.58;;;;;;;15.94;100.00;99246.44;10115861;29;20086;-76
2023/07/27 21:21:32;;;;;;;11.93;10.52;;;;;;;15.79;100.00;99245.59;10119532;29;20054;-76
2023/07/27 21:26:35;;;;;;;13.45;11.93;;;;;;;15.76;100.00;99264.91;10114163;29;20112;-76
2023/07/27 21:31:38;;;;;;;18.00;13.75;;;;;;;15.73;100.00;99262.56;10124327;29;20056;-76
2023/07/27 21:36:42;;;;;;;20.73;17.45;;;;;;;15.75;100.00;99265.94;10117907;29;20056;-77
2023/07/27 21:41:46;;;;;;;20.90;18.23;;;;;;;15.96;100.00;99274.16;10120247;29;20057;-76
2023/07/27 21:46:48;;;;;;;19.52;17.08;;;;;;;15.78;100.00;99269.13;10108669;29;20048;-76
2023/07/27 21:51:53;;;;;;;15.30;11.45;;;;;;;15.77;100.00;99258.47;10119500;29;20104;-76
2023/07/27 21:56:56;;;;;;;13.80;11.75;;;;;;;15.68;100.00;99258.53;10118529;29;21205;-76
2023/07/27 22:01:59;;;;;;;12.70;11.38;;;;;;;15.77;100.00;99262.03;10110074;29;20055;-75
2023/07/27 22:07:03;;;;;;;11.77;7.40;;;;;;;15.78;100.00;99269.13;10109695;29;20048;-78
2023/07/27 22:12:07;;;;;;;7.47;5.72;;;;;;;15.52;100.00;99260.56;10119803;29;20508;-76
2023/07/27 22:17:10;;;;;;;13.48;10.90;;;;;;;15.75;100.00;99260.53;10125395;29;20048;-75
2023/07/27 22:22:15;;;;;;;16.02;14.00;;;;;;;15.96;99.83;99257.91;10120202;29;20048;-76
2023/07/27 22:27:17;;;;;;;14.57;11.25;;;;;;;15.74;100.00;99265.06;10116830;29;20116;-75
2023/07/27 22:32:20;;;;;;;17.02;13.43;;;;;;;15.69;100.00;99257.53;10117338;29;20071;-76
2023/07/27 22:37:25;;;;;;;16.75;15.10;;;;;;;15.72;100.00;99260.91;10117067;29;20088;-76
2023/07/27 22:42:27;;;;;;;16.80;11.02;;;;;;;15.75;100.00;99257.81;10124006;29;20059;-76
2023/07/27 22:47:30;;;;;;;10.85;9.75;;;;;;;15.67;100.00;99250.63;10109761;29;20052;-76
2023/07/27 22:52:35;;;;;;;12.18;9.57;;;;;;;15.95;98.80;99237.28;10086073;29;1063181;-76
2023/07/27 22:57:41;;;;;;;7.40;6.47;;;;;;;15.81;99.11;99244.38;10121614;29;20058;-76
2023/07/27 23:02:44;;;;;;;7.50;6.80;;;;;;;15.78;100.00;99263.69;10113300;29;20056;-75
2023/07/27 23:07:48;;;;;;;6.43;5.57;;;;;;;16.02;97.62;99243.63;10104204;29;20135;-76
2023/07/27 23:12:51;;;;;;;6.60;6.00;;;;;;;16.05;96.46;99245.97;10118064;29;20058;-76
2023/07/27 23:17:54;;;;;;;4.93;4.50;;;;;;;15.80;97.63;99248.13;10121354;29;20043;-76